Time;durP1;ratioP1;P1;durP2;ratioP2;P2;SDS_P1;SDS_P2;PMS_P1;PMS_P2;Temp;Humidity;BMP_temperature;BMP_pressure;BME280_temperature;BME280_humidity;BME280_pressure;Samples;Min_cycle;Max_cycle;Signal;HPM_P1;HPM_P2
2023/05/18 00:00:26;;;;;;;2.97;1.83;;;;;;;;;;5023381;28;20032;-60
2023/05/18 00:02:52;;;;;;;2.88;1.95;;;;;;;;;;5023273;28;20132;-60
2023/05/18 00:05:17;;;;;;;2.90;1.80;;;;;;;;;;5003402;28;20177;-62
2023/05/18 00:07:43;;;;;;;3.65;1.90;;;;;;;;;;5005555;28;20303;-60
2023/05/18 00:10:08;;;;;;;2.75;1.60;;;;;;;;;;5022601;28;20042;-61
2023/05/18 00:12:33;;;;;;;3.13;2.00;;;;;;;;;;5022912;28;20041;-61
2023/05/18 00:14:59;;;;;;;2.40;1.70;;;;;;;;;;5023313;28;20116;-61
2023/05/18 00:17:24;;;;;;;3.25;1.80;;;;;;;;;;5004956;28;20836;-60
2023/05/18 00:19:49;;;;;;;3.97;1.70;;;;;;;;;;5023466;28;20054;-60
2023/05/18 00:22:17;;;;;;;2.50;1.70;;;;;;;;;;5023130;28;20288;-61
2023/05/18 00:24:43;;;;;;;2.97;1.70;;;;;;;;;;5020233;28;20046;-60
2023/05/18 00:27:08;;;;;;;3.10;1.70;;;;;;;;;;5004887;28;20037;-62
2023/05/18 00:29:33;;;;;;;2.80;1.70;;;;;;;;;;5023043;28;20049;-60
2023/05/18 00:31:58;;;;;;;3.23;1.83;;;;;;;;;;5023347;28;20036;-61
2023/05/18 00:34:24;;;;;;;2.77;1.80;;;;;;;;;;5022573;28;20316;-62
2023/05/18 00:36:49;;;;;;;2.53;1.77;;;;;;;;;;5022631;28;20296;-61
2023/05/18 00:39:14;;;;;;;4.00;1.70;;;;;;;;;;5022885;28;20292;-61
2023/05/18 00:41:40;;;;;;;3.13;1.90;;;;;;;;;;5002941;28;20065;-61
2023/05/18 00:44:05;;;;;;;2.38;1.50;;;;;;;;;;5000945;28;20060;-60
2023/05/18 00:46:30;;;;;;;2.45;1.42;;;;;;;;;;5026594;28;20182;-60
2023/05/18 00:48:56;;;;;;;2.87;1.47;;;;;;;;;;5014535;28;20037;-61
2023/05/18 00:51:22;;;;;;;3.03;1.60;;;;;;;;;;5027810;28;20748;-61
2023/05/18 00:53:47;;;;;;;2.05;1.40;;;;;;;;;;5006930;28;20069;-61
2023/05/18 00:56:12;;;;;;;2.40;1.48;;;;;;;;;;5004757;28;20045;-60
2023/05/18 00:58:38;;;;;;;2.37;1.30;;;;;;;;;;5032719;28;20210;-60
2023/05/18 01:01:04;;;;;;;3.30;1.60;;;;;;;;;;5028774;28;20117;-60
2023/05/18 01:03:31;;;;;;;2.13;1.33;;;;;;;;;;5023299;28;20051;-60
2023/05/18 01:05:56;;;;;;;2.03;1.23;;;;;;;;;;5022693;28;20033;-61
2023/05/18 01:08:22;;;;;;;1.60;1.30;;;;;;;;;;5022613;28;20565;-59
2023/05/18 01:10:53;;;;;;;1.75;1.25;;;;;;;;;;5004422;28;20562;-61
2023/05/18 01:13:22;;;;;;;2.17;1.30;;;;;;;;;;5002471;28;20045;-60
2023/05/18 01:15:47;;;;;;;2.30;1.55;;;;;;;;;;5004716;28;20018;-62
2023/05/18 01:18:20;;;;;;;2.00;1.20;;;;;;;;;;5004584;28;20049;-61
2023/05/18 01:20:49;;;;;;;2.10;1.50;;;;;;;;;;5004865;28;20663;-61
2023/05/18 01:23:24;;;;;;;2.10;1.27;;;;;;;;;;5004674;28;20136;-61
2023/05/18 01:25:52;;;;;;;2.85;1.38;;;;;;;;;;5021778;28;21005;-60
2023/05/18 01:28:19;;;;;;;1.80;1.05;;;;;;;;;;5004901;28;20840;-61
2023/05/18 01:30:44;;;;;;;2.15;1.40;;;;;;;;;;5020359;28;20028;-60
2023/05/18 01:33:10;;;;;;;1.92;1.20;;;;;;;;;;5001471;28;20025;-60
2023/05/18 01:35:35;;;;;;;1.75;1.15;;;;;;;;;;5004912;28;20018;-61
2023/05/18 01:38:01;;;;;;;2.30;1.15;;;;;;;;;;5025795;28;20503;-60
2023/05/18 01:40:26;;;;;;;2.03;1.23;;;;;;;;;;5026653;28;20021;-60
2023/05/18 01:42:52;;;;;;;1.90;1.10;;;;;;;;;;5008556;28;20079;-60
2023/05/18 01:45:20;;;;;;;1.83;1.23;;;;;;;;;;4988874;28;20450;-61
2023/05/18 01:47:46;;;;;;;2.20;1.02;;;;;;;;;;5025880;28;20076;-60
2023/05/18 01:50:15;;;;;;;2.53;1.10;;;;;;;;;;5008028;28;20482;-60
2023/05/18 01:52:59;;;;;;;1.77;1.05;;;;;;;;;;5008171;28;20041;-61
2023/05/18 01:55:25;;;;;;;2.10;1.15;;;;;;;;;;5008398;28;20624;-60
2023/05/18 01:57:50;;;;;;;1.48;0.90;;;;;;;;;;5008035;28;20046;-60
2023/05/18 02:00:16;;;;;;;1.95;0.90;;;;;;;;;;5008042;28;20121;-61
2023/05/18 02:02:41;;;;;;;1.67;1.08;;;;;;;;;;5023506;28;20088;-60
2023/05/18 02:05:11;;;;;;;1.95;1.15;;;;;;;;;;5026147;28;20037;-61
2023/05/18 02:07:36;;;;;;;2.28;0.98;;;;;;;;;;5025018;28;20033;-60
2023/05/18 02:10:01;;;;;;;1.60;0.90;;;;;;;;;;5025364;28;20115;-61
2023/05/18 02:12:26;;;;;;;2.10;0.80;;;;;;;;;;5023900;28;20346;-61
2023/05/18 02:14:54;;;;;;;1.83;1.15;;;;;;;;;;5024175;28;20272;-61
2023/05/18 02:17:20;;;;;;;1.20;0.88;;;;;;;;;;5025555;28;20034;-61
2023/05/18 02:19:46;;;;;;;1.90;1.00;;;;;;;;;;5021690;28;20132;-61
2023/05/18 02:22:11;;;;;;;2.23;0.90;;;;;;;;;;5023486;28;20120;-60
2023/05/18 02:24:36;;;;;;;1.63;0.90;;;;;;;;;;5007825;28;20147;-60
2023/05/18 02:27:01;;;;;;;1.50;1.00;;;;;;;;;;5025436;28;20045;-62
2023/05/18 02:29:27;;;;;;;1.00;0.80;;;;;;;;;;5025901;28;20040;-60
2023/05/18 02:31:52;;;;;;;1.30;0.90;;;;;;;;;;5029605;28;20052;-60
2023/05/18 02:34:18;;;;;;;1.40;0.83;;;;;;;;;;5024527;28;20924;-60
2023/05/18 02:36:44;;;;;;;2.03;0.85;;;;;;;;;;5023181;28;20383;-59
2023/05/18 02:39:10;;;;;;;1.17;0.77;;;;;;;;;;5006590;28;20029;-60
2023/05/18 02:41:35;;;;;;;1.42;0.82;;;;;;;;;;5023836;28;20040;-60
2023/05/18 02:44:01;;;;;;;1.52;0.90;;;;;;;;;;5019848;28;20528;-60
2023/05/18 02:46:27;;;;;;;1.63;1.10;;;;;;;;;;5011435;28;20256;-60
2023/05/18 02:48:52;;;;;;;2.47;1.00;;;;;;;;;;5024033;28;20334;-62
2023/05/18 02:51:17;;;;;;;1.13;0.88;;;;;;;;;;5023191;28;20446;-60
2023/05/18 02:53:43;;;;;;;1.70;0.80;;;;;;;;;;4990548;28;20091;-60
2023/05/18 02:56:08;;;;;;;1.40;0.90;;;;;;;;;;5024271;28;20295;-61
2023/05/18 02:58:33;;;;;;;1.10;0.80;;;;;;;;;;5024111;28;20499;-60
2023/05/18 03:00:59;;;;;;;1.40;0.90;;;;;;;;;;5025368;28;20026;-60
2023/05/18 03:03:24;;;;;;;1.10;0.70;;;;;;;;;;5024109;28;21010;-60
2023/05/18 03:05:52;;;;;;;1.35;0.80;;;;;;;;;;5006678;28;20030;-61
2023/05/18 03:08:25;;;;;;;1.20;0.80;;;;;;;;;;5021951;28;20116;-61
2023/05/18 03:10:50;;;;;;;1.08;0.65;;;;;;;;;;5006601;28;20050;-60
2023/05/18 03:13:16;;;;;;;2.30;1.08;;;;;;;;;;5024456;28;20037;-60
2023/05/18 03:15:44;;;;;;;1.40;0.80;;;;;;;;;;5024470;28;20037;-60
2023/05/18 03:18:09;;;;;;;1.00;0.60;;;;;;;;;;5023952;28;20205;-60
2023/05/18 03:20:36;;;;;;;1.42;0.70;;;;;;;;;;5006863;28;20296;-60
2023/05/18 03:23:02;;;;;;;1.45;0.70;;;;;;;;;;5024099;28;20520;-60
2023/05/18 03:25:27;;;;;;;1.55;0.65;;;;;;;;;;5022718;28;20107;-60
2023/05/18 03:27:52;;;;;;;1.38;0.80;;;;;;;;;;5006590;28;20127;-60
2023/05/18 03:30:18;;;;;;;1.10;0.73;;;;;;;;;;5015315;28;20431;-59
2023/05/18 03:32:43;;;;;;;1.23;0.70;;;;;;;;;;5026825;28;20056;-60
2023/05/18 03:35:09;;;;;;;2.03;0.93;;;;;;;;;;5024338;28;20029;-60
2023/05/18 03:37:34;;;;;;;1.35;1.00;;;;;;;;;;5023823;28;20068;-60
2023/05/18 03:40:07;;;;;;;1.03;0.80;;;;;;;;;;5024404;28;20136;-61
2023/05/18 03:42:32;;;;;;;1.50;0.80;;;;;;;;;;4997173;28;20423;-61
2023/05/18 03:44:58;;;;;;;1.53;0.80;;;;;;;;;;5009335;28;20041;-61
2023/05/18 03:47:23;;;;;;;1.10;0.60;;;;;;;;;;5018332;28;20052;-60
2023/05/18 03:49:48;;;;;;;1.52;0.82;;;;;;;;;;5013422;28;20772;-59
2023/05/18 03:52:14;;;;;;;1.40;0.63;;;;;;;;;;5006266;28;20124;-63
2023/05/18 03:54:41;;;;;;;1.65;0.68;;;;;;;;;;5023492;28;20298;-62
2023/05/18 03:57:06;;;;;;;1.20;0.70;;;;;;;;;;5023811;28;20033;-61
2023/05/18 03:59:32;;;;;;;1.40;0.63;;;;;;;;;;5021777;28;20115;-62
2023/05/18 04:01:57;;;;;;;1.30;0.70;;;;;;;;;;5026020;28;20284;-64
2023/05/18 04:04:22;;;;;;;1.90;0.80;;;;;;;;;;5022852;28;20436;-60
2023/05/18 04:06:50;;;;;;;1.98;0.70;;;;;;;;;;5006654;28;20046;-59
2023/05/18 04:09:16;;;;;;;1.40;0.60;;;;;;;;;;5019751;28;20033;-62
2023/05/18 04:11:41;;;;;;;1.10;0.70;;;;;;;;;;5024603;28;20399;-65
2023/05/18 04:14:07;;;;;;;1.13;0.75;;;;;;;;;;5013420;28;20073;-61
2023/05/18 04:16:33;;;;;;;1.58;0.70;;;;;;;;;;5003544;28;20037;-61
2023/05/18 04:18:59;;;;;;;1.38;0.73;;;;;;;;;;5022623;28;20033;-61
2023/05/18 04:21:24;;;;;;;1.30;0.80;;;;;;;;;;5017870;28;20041;-61
2023/05/18 04:23:49;;;;;;;1.50;0.80;;;;;;;;;;5014368;28;20155;-62
2023/05/18 04:26:18;;;;;;;2.95;0.90;;;;;;;;;;5005273;28;20331;-65
2023/05/18 04:28:44;;;;;;;1.40;0.77;;;;;;;;;;5023752;28;20408;-65
2023/05/18 04:31:13;;;;;;;1.20;0.65;;;;;;;;;;5023838;28;20060;-65
2023/05/18 04:33:39;;;;;;;1.30;0.70;;;;;;;;;;4997419;28;20485;-62
2023/05/18 04:36:04;;;;;;;3.85;0.80;;;;;;;;;;5016519;28;20076;-66
2023/05/18 04:38:31;;;;;;;1.60;0.80;;;;;;;;;;5022814;28;20121;-66
2023/05/18 04:40:59;;;;;;;1.10;0.70;;;;;;;;;;5022072;28;20411;-63
2023/05/18 04:43:24;;;;;;;1.88;0.70;;;;;;;;;;5023635;28;20132;-63
2023/05/18 04:45:50;;;;;;;1.73;0.77;;;;;;;;;;5020370;28;20128;-66
2023/05/18 04:48:18;;;;;;;2.20;0.90;;;;;;;;;;5023429;28;20144;-64
2023/05/18 04:50:44;;;;;;;1.10;0.80;;;;;;;;;;5021545;28;20056;-63
2023/05/18 04:53:10;;;;;;;0.95;0.60;;;;;;;;;;5022511;28;20029;-63
2023/05/18 04:55:36;;;;;;;2.03;1.00;;;;;;;;;;5023018;28;20095;-67
2023/05/18 04:58:02;;;;;;;2.28;0.65;;;;;;;;;;5003815;28;20045;-63
2023/05/18 05:00:27;;;;;;;3.13;0.77;;;;;;;;;;5020081;28;20061;-63
2023/05/18 05:02:53;;;;;;;1.23;0.70;;;;;;;;;;5015315;28;20645;-64
2023/05/18 05:05:19;;;;;;;1.17;0.77;;;;;;;;;;5021294;28;20033;-63
2023/05/18 05:07:44;;;;;;;1.05;0.77;;;;;;;;;;5022929;28;20444;-63
2023/05/18 05:10:10;;;;;;;1.30;0.70;;;;;;;;;;5002731;28;20045;-63
2023/05/18 05:12:38;;;;;;;1.15;0.90;;;;;;;;;;5017581;28;20106;-64
2023/05/18 05:15:03;;;;;;;1.00;0.52;;;;;;;;;;5018369;28;20025;-64
2023/05/18 05:17:29;;;;;;;0.88;0.60;;;;;;;;;;5022798;28;20094;-61
2023/05/18 05:19:54;;;;;;;2.97;0.80;;;;;;;;;;5018876;28;20127;-63
2023/05/18 05:22:19;;;;;;;1.65;0.70;;;;;;;;;;5001050;28;20521;-63
2023/05/18 05:24:45;;;;;;;2.15;0.88;;;;;;;;;;4988807;28;20046;-62
2023/05/18 05:27:10;;;;;;;0.98;0.70;;;;;;;;;;5003703;28;20044;-64
2023/05/18 05:29:35;;;;;;;1.00;0.70;;;;;;;;;;5028028;28;20041;-66
2023/05/18 05:32:00;;;;;;;2.10;0.70;;;;;;;;;;5036487;28;20820;-63
2023/05/18 05:34:26;;;;;;;1.20;0.90;;;;;;;;;;5033666;28;20419;-69
2023/05/18 05:36:51;;;;;;;1.23;0.90;;;;;;;;;;5022379;28;20276;-60
2023/05/18 05:39:17;;;;;;;1.30;0.90;;;;;;;;;;5021708;28;20264;-65
2023/05/18 05:41:42;;;;;;;4.00;0.80;;;;;;;;;;5018665;28;20409;-63
2023/05/18 05:44:07;;;;;;;1.30;0.90;;;;;;;;;;4988896;28;20555;-60
2023/05/18 05:46:32;;;;;;;1.10;0.90;;;;;;;;;;4989586;28;20366;-59
2023/05/18 05:48:58;;;;;;;2.00;0.83;;;;;;;;;;5018536;28;20076;-60
2023/05/18 05:51:23;;;;;;;1.40;0.90;;;;;;;;;;5017793;28;20045;-61
2023/05/18 05:53:48;;;;;;;3.47;1.00;;;;;;;;;;5017244;28;20025;-60
2023/05/18 05:56:14;;;;;;;1.52;0.90;;;;;;;;;;5012635;28;20057;-61
2023/05/18 05:58:41;;;;;;;1.67;1.05;;;;;;;;;;5019875;28;20499;-61
2023/05/18 06:01:07;;;;;;;1.67;0.93;;;;;;;;;;5019109;28;20045;-59
2023/05/18 06:03:32;;;;;;;2.60;1.00;;;;;;;;;;5021675;28;20132;-60
2023/05/18 06:05:58;;;;;;;2.00;0.90;;;;;;;;;;5020994;28;20104;-60
2023/05/18 06:08:23;;;;;;;3.50;1.13;;;;;;;;;;4994889;28;20049;-61
2023/05/18 06:10:48;;;;;;;1.80;1.02;;;;;;;;;;5021762;28;20523;-60
2023/05/18 06:13:14;;;;;;;2.57;1.00;;;;;;;;;;5021691;28;20107;-59
2023/05/18 06:15:39;;;;;;;1.60;0.95;;;;;;;;;;5020850;28;20280;-60
2023/05/18 06:18:04;;;;;;;2.20;1.00;;;;;;;;;;5020750;28;20115;-61
2023/05/18 06:20:30;;;;;;;2.65;0.90;;;;;;;;;;5022006;28;20061;-61
2023/05/18 06:22:55;;;;;;;3.17;1.05;;;;;;;;;;5020609;28;20140;-61
2023/05/18 06:25:21;;;;;;;1.57;1.03;;;;;;;;;;5022446;28;20096;-59
2023/05/18 06:27:47;;;;;;;1.58;0.80;;;;;;;;;;5024266;28;20312;-60
2023/05/18 06:30:12;;;;;;;1.15;0.93;;;;;;;;;;4997859;28;20049;-60
2023/05/18 06:32:37;;;;;;;2.13;1.10;;;;;;;;;;5023809;28;20034;-60
2023/05/18 06:35:03;;;;;;;2.15;0.80;;;;;;;;;;5019896;28;20529;-60
2023/05/18 06:37:28;;;;;;;2.35;0.90;;;;;;;;;;5014343;28;20050;-60
2023/05/18 06:39:53;;;;;;;2.47;1.10;;;;;;;;;;4998837;28;20503;-60
2023/05/18 06:42:19;;;;;;;2.23;1.30;;;;;;;;;;5021650;28;20285;-60
2023/05/18 06:44:44;;;;;;;2.23;1.20;;;;;;;;;;5017240;28;20336;-61
2023/05/18 06:47:09;;;;;;;1.90;1.10;;;;;;;;;;4994751;28;20288;-60
2023/05/18 06:49:35;;;;;;;1.63;0.90;;;;;;;;;;5023475;28;20141;-58
2023/05/18 06:52:00;;;;;;;2.80;1.00;;;;;;;;;;5012225;28;20105;-60
2023/05/18 06:54:28;;;;;;;2.40;1.20;;;;;;;;;;5011134;28;20174;-60
2023/05/18 06:56:53;;;;;;;1.30;0.98;;;;;;;;;;4992690;28;20063;-59
2023/05/18 06:59:18;;;;;;;2.43;1.13;;;;;;;;;;5013308;28;20048;-60
2023/05/18 07:01:43;;;;;;;2.03;0.97;;;;;;;;;;5023437;28;20396;-60
2023/05/18 07:04:09;;;;;;;1.60;1.10;;;;;;;;;;5007158;28;20288;-60
2023/05/18 07:06:34;;;;;;;1.75;1.10;;;;;;;;;;5026582;28;20016;-60
2023/05/18 07:09:00;;;;;;;1.50;0.90;;;;;;;;;;5013057;28;20751;-59
2023/05/18 07:11:26;;;;;;;2.10;1.02;;;;;;;;;;5004921;28;20257;-60
2023/05/18 07:13:51;;;;;;;1.63;0.97;;;;;;;;;;5016619;28;20522;-60
2023/05/18 07:16:16;;;;;;;1.77;1.30;;;;;;;;;;5007338;28;20261;-60
2023/05/18 07:18:41;;;;;;;2.40;1.10;;;;;;;;;;5005070;28;20391;-59
2023/05/18 07:21:07;;;;;;;2.05;1.17;;;;;;;;;;5004933;28;20052;-59
2023/05/18 07:23:32;;;;;;;2.90;1.13;;;;;;;;;;5012519;28;20176;-59
2023/05/18 07:25:57;;;;;;;2.22;1.10;;;;;;;;;;4988909;28;20017;-59
2023/05/18 07:28:23;;;;;;;2.23;1.13;;;;;;;;;;5012409;28;20033;-60
2023/05/18 07:30:48;;;;;;;2.63;1.17;;;;;;;;;;4989447;28;20017;-60
2023/05/18 07:33:13;;;;;;;1.77;1.23;;;;;;;;;;5021124;28;20041;-60
2023/05/18 07:35:38;;;;;;;2.63;1.40;;;;;;;;;;5011568;28;20347;-60
2023/05/18 07:38:03;;;;;;;2.58;1.38;;;;;;;;;;5024425;28;20712;-58
2023/05/18 07:40:29;;;;;;;1.83;1.30;;;;;;;;;;4993518;28;20109;-59
2023/05/18 07:42:54;;;;;;;2.15;1.17;;;;;;;;;;5010339;28;20307;-58
2023/05/18 07:45:20;;;;;;;2.72;1.40;;;;;;;;;;4983579;28;20522;-60
2023/05/18 07:47:45;;;;;;;2.58;1.40;;;;;;;;;;5013081;28;20430;-59
2023/05/18 07:50:11;;;;;;;2.50;1.53;;;;;;;;;;5022012;28;20025;-59
2023/05/18 07:52:36;;;;;;;2.17;1.33;;;;;;;;;;5004739;28;20018;-60
2023/05/18 07:55:01;;;;;;;1.67;1.30;;;;;;;;;;5004233;28;20277;-60
2023/05/18 07:57:26;;;;;;;2.87;1.60;;;;;;;;;;5003652;28;20252;-60
2023/05/18 07:59:52;;;;;;;2.73;1.60;;;;;;;;;;5004183;28;20261;-59
2023/05/18 08:02:18;;;;;;;2.00;1.40;;;;;;;;;;4985821;28;20924;-60
2023/05/18 08:04:44;;;;;;;1.92;1.50;;;;;;;;;;5002609;28;20293;-59
2023/05/18 08:07:09;;;;;;;2.78;1.90;;;;;;;;;;5003774;28;20041;-60
2023/05/18 08:09:34;;;;;;;1.98;1.55;;;;;;;;;;4987110;28;20022;-60
2023/05/18 08:12:00;;;;;;;2.70;1.50;;;;;;;;;;5005527;28;20055;-59
2023/05/18 08:14:25;;;;;;;2.73;1.63;;;;;;;;;;5003731;28;20461;-59
2023/05/18 08:16:50;;;;;;;3.83;1.87;;;;;;;;;;4969886;28;20105;-60
2023/05/18 08:19:16;;;;;;;2.60;1.77;;;;;;;;;;5013804;28;20789;-59
2023/05/18 08:21:41;;;;;;;4.70;1.90;;;;;;;;;;4969791;28;20281;-59
2023/05/18 08:24:08;;;;;;;3.97;1.90;;;;;;;;;;5002998;28;20034;-60
2023/05/18 08:26:33;;;;;;;2.50;1.48;;;;;;;;;;5003649;28;20021;-59
2023/05/18 08:28:58;;;;;;;3.00;1.97;;;;;;;;;;5003791;28;20463;-60
2023/05/18 08:31:23;;;;;;;3.53;2.00;;;;;;;;;;5005577;28;20471;-60
2023/05/18 08:33:48;;;;;;;5.47;2.23;;;;;;;;;;5004547;28;20283;-59
2023/05/18 08:36:14;;;;;;;2.90;1.90;;;;;;;;;;5013741;28;20260;-59
2023/05/18 08:38:39;;;;;;;4.82;2.10;;;;;;;;;;5008138;28;20184;-59
2023/05/18 08:41:13;;;;;;;4.28;1.92;;;;;;;;;;4985634;28;20614;-60
2023/05/18 08:43:40;;;;;;;3.95;2.20;;;;;;;;;;4987991;28;20045;-60
2023/05/18 08:46:25;;;;;;;3.88;2.00;;;;;;;;;;4994675;28;20879;-60
2023/05/18 08:48:51;;;;;;;4.05;2.03;;;;;;;;;;5002719;28;20616;-60
2023/05/18 08:51:18;;;;;;;6.70;1.92;;;;;;;;;;5003665;28;20038;-60
2023/05/18 08:53:43;;;;;;;4.63;1.80;;;;;;;;;;4988539;28;20036;-61
2023/05/18 08:56:09;;;;;;;3.03;1.90;;;;;;;;;;4975954;28;20140;-60
2023/05/18 08:58:34;;;;;;;4.55;2.25;;;;;;;;;;5004435;28;20829;-60
2023/05/18 09:01:00;;;;;;;4.90;2.30;;;;;;;;;;5010198;28;20029;-61
2023/05/18 09:03:26;;;;;;;3.03;1.83;;;;;;;;;;4984932;28;20041;-60
2023/05/18 09:05:51;;;;;;;2.92;1.88;;;;;;;;;;5002546;28;20115;-60
2023/05/18 09:08:17;;;;;;;2.97;1.92;;;;;;;;;;5003164;28;20030;-60
2023/05/18 09:10:42;;;;;;;5.18;2.10;;;;;;;;;;5001623;28;20076;-60
2023/05/18 09:13:07;;;;;;;3.37;2.00;;;;;;;;;;5003762;28;20041;-60
2023/05/18 09:15:36;;;;;;;5.70;2.25;;;;;;;;;;5011554;28;20312;-61
2023/05/18 09:18:02;;;;;;;3.20;1.90;;;;;;;;;;5013321;28;20038;-60
2023/05/18 09:20:27;;;;;;;7.88;2.40;;;;;;;;;;4992948;28;20046;-60
2023/05/18 09:22:53;;;;;;;2.80;2.20;;;;;;;;;;5011547;28;20046;-61
2023/05/18 09:25:20;;;;;;;4.87;2.23;;;;;;;;;;5023300;28;20534;-61
2023/05/18 09:27:45;;;;;;;3.50;1.95;;;;;;;;;;5015695;28;20068;-60
2023/05/18 09:30:11;;;;;;;3.05;1.95;;;;;;;;;;5023724;28;20479;-59
2023/05/18 09:32:36;;;;;;;4.57;2.10;;;;;;;;;;5013706;28;20033;-60
2023/05/18 09:35:07;;;;;;;3.13;2.10;;;;;;;;;;5018189;28;20045;-60
2023/05/18 09:37:33;;;;;;;3.97;1.98;;;;;;;;;;4996890;28;20034;-60
2023/05/18 09:40:04;;;;;;;6.78;3.13;;;;;;;;;;5023838;28;20088;-59
2023/05/18 09:42:42;;;;;;;6.90;3.53;;;;;;;;;;5002843;28;20072;-61
2023/05/18 09:45:22;;;;;;;6.25;3.15;;;;;;;;;;5006807;28;20033;-60
2023/05/18 09:47:48;;;;;;;9.43;2.97;;;;;;;;;;5014938;28;20041;-60
2023/05/18 09:50:14;;;;;;;4.80;2.78;;;;;;;;;;4987864;28;20047;-60
2023/05/18 09:52:43;;;;;;;4.60;2.80;;;;;;;;;;5022912;28;20038;-60
2023/05/18 09:55:09;;;;;;;5.30;2.40;;;;;;;;;;5003193;28;20048;-59
2023/05/18 09:57:39;;;;;;;4.30;2.42;;;;;;;;;;5005286;28;20467;-60
2023/05/18 10:00:09;;;;;;;5.85;2.30;;;;;;;;;;5011523;28;20416;-60
2023/05/18 10:02:36;;;;;;;6.63;2.88;;;;;;;;;;5006821;28;20578;-60
2023/05/18 10:05:01;;;;;;;4.40;2.45;;;;;;;;;;5018690;28;20053;-59
2023/05/18 10:07:27;;;;;;;5.83;2.57;;;;;;;;;;4992890;28;20549;-60
2023/05/18 10:09:59;;;;;;;4.93;2.50;;;;;;;;;;5016081;28;20315;-60
2023/05/18 10:12:24;;;;;;;5.10;2.20;;;;;;;;;;5012445;28;20275;-60
2023/05/18 10:14:49;;;;;;;4.27;2.37;;;;;;;;;;5012560;28;20029;-59
2023/05/18 10:17:15;;;;;;;5.47;2.57;;;;;;;;;;4995992;28;20033;-60
2023/05/18 10:19:41;;;;;;;4.00;2.38;;;;;;;;;;4991236;28;20296;-60
2023/05/18 10:22:06;;;;;;;5.32;2.53;;;;;;;;;;5007686;28;20041;-60
2023/05/18 10:24:33;;;;;;;5.00;2.40;;;;;;;;;;5006261;28;20167;-60
2023/05/18 10:26:59;;;;;;;4.72;2.38;;;;;;;;;;5005859;28;20148;-60
2023/05/18 10:29:24;;;;;;;3.00;2.05;;;;;;;;;;5017543;28;20037;-60
2023/05/18 10:31:50;;;;;;;3.40;2.50;;;;;;;;;;5006981;28;20026;-61
2023/05/18 10:34:17;;;;;;;2.90;2.20;;;;;;;;;;4987839;28;20038;-60
2023/05/18 10:36:42;;;;;;;3.80;2.33;;;;;;;;;;4988053;28;20269;-60
2023/05/18 10:39:07;;;;;;;4.68;2.35;;;;;;;;;;4988018;28;20041;-60
2023/05/18 10:41:33;;;;;;;4.40;2.27;;;;;;;;;;4987785;28;20050;-59
2023/05/18 10:44:02;;;;;;;5.47;2.47;;;;;;;;;;4989797;28;20929;-61
2023/05/18 10:46:28;;;;;;;4.47;2.40;;;;;;;;;;5009237;28;20320;-60
2023/05/18 10:48:53;;;;;;;4.50;2.50;;;;;;;;;;4992561;28;20025;-60
2023/05/18 10:51:18;;;;;;;4.43;2.50;;;;;;;;;;5011827;28;20033;-59
2023/05/18 10:53:46;;;;;;;4.55;2.30;;;;;;;;;;4978525;28;20152;-59
2023/05/18 10:56:11;;;;;;;3.65;2.20;;;;;;;;;;5007099;28;20032;-60
2023/05/18 10:58:36;;;;;;;4.43;2.57;;;;;;;;;;5007771;28;20413;-61
2023/05/18 11:01:03;;;;;;;4.53;2.30;;;;;;;;;;5013280;28;20459;-59
2023/05/18 11:03:28;;;;;;;4.88;2.40;;;;;;;;;;4988351;28;20300;-61
2023/05/18 11:06:07;;;;;;;3.65;2.25;;;;;;;;;;5018052;28;20028;-58
2023/05/18 11:08:32;;;;;;;4.00;1.92;;;;;;;;;;5016078;28;20046;-60
2023/05/18 11:11:01;;;;;;;3.88;2.30;;;;;;;;;;5008332;28;20057;-61
2023/05/18 11:13:27;;;;;;;3.97;2.13;;;;;;;;;;4994800;28;20499;-60
2023/05/18 11:15:53;;;;;;;4.45;2.47;;;;;;;;;;5015725;28;20061;-59
2023/05/18 11:18:18;;;;;;;4.18;2.42;;;;;;;;;;5011089;28;20531;-60
2023/05/18 11:20:47;;;;;;;3.45;2.10;;;;;;;;;;5024041;28;20046;-60
2023/05/18 11:23:15;;;;;;;4.05;2.28;;;;;;;;;;5002696;28;20072;-60
2023/05/18 11:25:41;;;;;;;3.38;2.33;;;;;;;;;;5013787;28;20037;-61
2023/05/18 11:28:07;;;;;;;4.57;2.58;;;;;;;;;;5009890;28;20087;-60
2023/05/18 11:30:32;;;;;;;4.47;2.35;;;;;;;;;;5013881;28;20029;-60
2023/05/18 11:33:07;;;;;;;3.53;2.40;;;;;;;;;;5004470;28;20521;-61
2023/05/18 11:35:33;;;;;;;5.70;2.28;;;;;;;;;;5025788;28;20095;-61
2023/05/18 11:38:05;;;;;;;4.68;2.40;;;;;;;;;;5007368;28;20096;-60
2023/05/18 11:40:46;;;;;;;3.65;2.28;;;;;;;;;;4987438;28;20476;-60
2023/05/18 11:43:21;;;;;;;5.57;2.58;;;;;;;;;;4996998;28;20045;-59
2023/05/18 11:45:53;;;;;;;4.28;2.50;;;;;;;;;;5017260;28;20030;-60
2023/05/18 11:48:19;;;;;;;3.58;2.40;;;;;;;;;;5016384;28;20176;-60
2023/05/18 11:50:45;;;;;;;4.55;2.53;;;;;;;;;;5011034;28;20123;-60
2023/05/18 11:53:13;;;;;;;3.65;2.42;;;;;;;;;;5012773;28;20978;-60
2023/05/18 11:55:39;;;;;;;3.97;2.25;;;;;;;;;;4989055;28;20476;-60
2023/05/18 11:58:05;;;;;;;3.35;2.10;;;;;;;;;;5011557;28;20900;-60
2023/05/18 12:00:30;;;;;;;3.70;2.33;;;;;;;;;;4989159;28;20124;-60
2023/05/18 12:02:55;;;;;;;3.17;2.37;;;;;;;;;;5023616;28;20697;-60
2023/05/18 12:05:21;;;;;;;3.72;2.55;;;;;;;;;;5023952;28;20273;-60
2023/05/18 12:07:46;;;;;;;3.20;2.30;;;;;;;;;;4993050;28;20037;-60
2023/05/18 12:10:13;;;;;;;3.80;2.17;;;;;;;;;;5005884;28;20025;-60
2023/05/18 12:12:38;;;;;;;3.72;2.50;;;;;;;;;;5009943;28;20092;-60
2023/05/18 12:15:07;;;;;;;4.57;1.85;;;;;;;;;;4994290;28;20569;-59
2023/05/18 12:17:42;;;;;;;2.88;2.22;;;;;;;;;;5010289;28;20026;-60
2023/05/18 12:20:08;;;;;;;4.00;2.25;;;;;;;;;;5012129;28;20058;-60
2023/05/18 12:22:33;;;;;;;3.03;1.90;;;;;;;;;;5004402;28;20112;-60
2023/05/18 12:24:58;;;;;;;4.13;2.28;;;;;;;;;;5003711;28;20063;-60
2023/05/18 12:27:25;;;;;;;4.20;2.00;;;;;;;;;;5007463;28;20042;-60
2023/05/18 12:29:50;;;;;;;3.47;1.92;;;;;;;;;;4985401;28;20275;-60
2023/05/18 12:32:15;;;;;;;3.20;2.23;;;;;;;;;;5009053;28;20029;-60
2023/05/18 12:34:41;;;;;;;6.43;2.60;;;;;;;;;;4985787;28;20273;-60
2023/05/18 12:37:06;;;;;;;3.40;2.13;;;;;;;;;;4998106;28;20072;-60
2023/05/18 12:39:32;;;;;;;4.07;2.30;;;;;;;;;;4985916;28;20038;-59
2023/05/18 12:42:13;;;;;;;3.60;2.20;;;;;;;;;;5003510;28;20034;-60
2023/05/18 12:44:39;;;;;;;3.47;2.25;;;;;;;;;;4986011;28;20200;-60
2023/05/18 12:47:04;;;;;;;3.25;2.30;;;;;;;;;;4989078;28;20074;-60
2023/05/18 12:49:34;;;;;;;4.78;2.33;;;;;;;;;;5002748;28;20038;-60
2023/05/18 12:52:06;;;;;;;3.08;2.08;;;;;;;;;;4984960;28;20511;-61
2023/05/18 12:54:31;;;;;;;3.80;2.45;;;;;;;;;;5003122;28;20148;-58
2023/05/18 12:56:59;;;;;;;3.80;2.50;;;;;;;;;;5003308;28;20026;-59
2023/05/18 12:59:25;;;;;;;4.20;2.47;;;;;;;;;;4985828;28;20025;-60
2023/05/18 13:01:50;;;;;;;5.57;2.80;;;;;;;;;;4984900;28;20029;-60
2023/05/18 13:04:15;;;;;;;3.65;2.60;;;;;;;;;;4985289;28;20069;-60
2023/05/18 13:06:41;;;;;;;4.83;2.57;;;;;;;;;;5003658;28;20195;-61
2023/05/18 13:09:07;;;;;;;5.07;2.50;;;;;;;;;;4997399;28;20318;-60
2023/05/18 13:11:33;;;;;;;5.07;2.80;;;;;;;;;;4988296;28;20018;-60
2023/05/18 13:13:58;;;;;;;5.68;2.55;;;;;;;;;;4993084;28;20025;-60
2023/05/18 13:16:24;;;;;;;5.30;2.37;;;;;;;;;;5002618;28;20742;-60
2023/05/18 13:18:58;;;;;;;7.57;3.08;;;;;;;;;;5007678;28;20288;-60
2023/05/18 13:21:23;;;;;;;6.75;3.05;;;;;;;;;;4975886;28;20391;-60
2023/05/18 13:23:48;;;;;;;5.90;2.70;;;;;;;;;;5009607;28;20048;-59
2023/05/18 13:26:14;;;;;;;4.22;2.80;;;;;;;;;;4976877;28;20018;-60
2023/05/18 13:28:40;;;;;;;4.32;2.78;;;;;;;;;;5013863;28;20017;-60
2023/05/18 13:31:05;;;;;;;6.60;2.90;;;;;;;;;;5011999;28;20490;-61
2023/05/18 13:33:30;;;;;;;5.32;3.30;;;;;;;;;;5006767;28;21856;-59
2023/05/18 13:35:56;;;;;;;5.82;2.97;;;;;;;;;;5007437;28;20049;-61
2023/05/18 13:38:21;;;;;;;6.53;3.40;;;;;;;;;;5006527;28;20038;-61
2023/05/18 13:40:46;;;;;;;4.07;2.77;;;;;;;;;;4999507;28;20053;-60
2023/05/18 13:43:11;;;;;;;6.23;3.27;;;;;;;;;;5008871;28;20277;-59
2023/05/18 13:45:36;;;;;;;6.70;2.80;;;;;;;;;;5006846;28;20257;-59
2023/05/18 13:48:05;;;;;;;5.57;3.30;;;;;;;;;;5006237;28;20284;-61
2023/05/18 13:50:31;;;;;;;5.00;3.33;;;;;;;;;;5006374;28;20273;-60
2023/05/18 13:52:56;;;;;;;4.53;3.17;;;;;;;;;;5006260;28;20396;-60
2023/05/18 13:55:21;;;;;;;4.97;3.07;;;;;;;;;;4988874;28;20456;-59
2023/05/18 13:57:46;;;;;;;3.53;2.67;;;;;;;;;;5005645;28;20273;-59
2023/05/18 14:00:12;;;;;;;7.03;3.37;;;;;;;;;;5000054;28;20381;-59
2023/05/18 14:02:38;;;;;;;4.85;3.00;;;;;;;;;;5009581;28;20359;-59
2023/05/18 14:05:07;;;;;;;5.10;3.15;;;;;;;;;;4995596;28;20057;-60
2023/05/18 14:07:33;;;;;;;7.07;3.40;;;;;;;;;;5006098;28;20181;-59
2023/05/18 14:09:58;;;;;;;4.15;3.03;;;;;;;;;;4983537;28;20865;-60
2023/05/18 14:12:24;;;;;;;6.37;3.90;;;;;;;;;;5002964;28;20144;-58
2023/05/18 14:14:49;;;;;;;5.88;3.83;;;;;;;;;;5007592;28;20691;-64
2023/05/18 14:17:14;;;;;;;5.10;2.80;;;;;;;;;;5015531;28;20083;-60
2023/05/18 14:19:39;;;;;;;5.63;2.73;;;;;;;;;;5004294;28;20048;-58
2023/05/18 14:22:05;;;;;;;6.33;2.70;;;;;;;;;;5013055;28;20300;-59
2023/05/18 14:24:30;;;;;;;5.82;2.50;;;;;;;;;;5006539;28;20870;-59
2023/05/18 14:26:55;;;;;;;3.13;2.58;;;;;;;;;;5017989;28;20038;-60
2023/05/18 14:29:20;;;;;;;4.60;2.10;;;;;;;;;;5008772;28;20038;-60
2023/05/18 14:31:46;;;;;;;3.17;2.40;;;;;;;;;;5014398;28;20042;-60
2023/05/18 14:34:11;;;;;;;3.78;2.60;;;;;;;;;;5016721;28;20821;-59
2023/05/18 14:36:36;;;;;;;2.87;2.40;;;;;;;;;;5007458;28;20102;-59